createdAt,value
2023-05-04T00:02:05.602Z,65.25
2023-05-04T00:04:32.242Z,66.08
2023-05-04T00:06:59.146Z,67.10
2023-05-04T00:09:26.023Z,66.46
2023-05-04T00:11:52.826Z,66.92
2023-05-04T00:14:19.419Z,67.65
2023-05-04T00:16:46.114Z,66.92
2023-05-04T00:19:13.101Z,67.27
2023-05-04T00:21:39.794Z,68.85
2023-05-04T00:24:06.977Z,69.35
2023-05-04T00:26:33.687Z,69.69
2023-05-04T00:29:00.531Z,67.44
2023-05-04T00:31:27.244Z,67.54
2023-05-04T00:33:53.911Z,68.09
2023-05-04T00:36:20.943Z,67.38
2023-05-04T00:38:52.144Z,67.14
2023-05-04T00:41:20.047Z,66.78
2023-05-04T00:43:47.375Z,67.62
2023-05-04T00:46:14.867Z,67.94
2023-05-04T00:48:42.686Z,67.61
2023-05-04T00:51:12.064Z,68.70
2023-05-04T00:53:39.405Z,68.01
2023-05-04T00:56:07.675Z,67.85
2023-05-04T00:58:35.301Z,68.66
2023-05-04T01:01:03.348Z,68.67
2023-05-04T01:03:32.665Z,69.00
2023-05-04T01:06:10.626Z,68.32
2023-05-04T01:08:45.488Z,68.44
2023-05-04T01:11:21.891Z,69.05
2023-05-04T01:13:51.287Z,68.69
2023-05-04T01:16:18.187Z,68.82
2023-05-04T01:18:44.816Z,68.95
2023-05-04T01:21:11.540Z,68.58
2023-05-04T01:23:38.211Z,69.95
2023-05-04T01:26:34.349Z,69.71
2023-05-04T01:29:09.738Z,70.31
2023-05-04T01:31:37.872Z,69.67
2023-05-04T01:34:06.321Z,70.49
2023-05-04T01:36:33.702Z,70.58
2023-05-04T01:39:00.707Z,70.23
2023-05-04T01:41:27.388Z,69.84
2023-05-04T01:43:54.401Z,68.29
2023-05-04T01:46:21.414Z,68.34
2023-05-04T01:48:48.202Z,68.09
2023-05-04T01:51:14.954Z,70.37
2023-05-04T01:53:41.596Z,70.90
2023-05-04T01:56:09.742Z,70.58
2023-05-04T01:58:36.378Z,70.00
2023-05-04T02:01:03.429Z,69.57
2023-05-04T02:03:31.435Z,69.62
2023-05-04T02:05:58.274Z,69.94
2023-05-04T02:08:24.914Z,69.69
2023-05-04T02:10:51.876Z,70.49
2023-05-04T02:13:19.394Z,70.19
2023-05-04T02:15:46.186Z,70.44
2023-05-04T02:18:13.022Z,69.60
2023-05-04T02:20:39.696Z,69.55
2023-05-04T02:23:07.111Z,69.66
2023-05-04T02:25:33.778Z,69.91
2023-05-04T02:28:00.815Z,69.63
2023-05-04T02:30:27.601Z,69.67
2023-05-04T02:32:54.287Z,70.16
2023-05-04T02:35:22.062Z,70.66
2023-05-04T02:37:48.703Z,70.16
2023-05-04T02:40:15.838Z,69.48
2023-05-04T02:42:42.426Z,69.90
2023-05-04T02:45:09.456Z,70.11
2023-05-04T02:47:36.139Z,71.53
2023-05-04T02:50:03.461Z,70.79
2023-05-04T02:52:32.118Z,70.98
2023-05-04T02:54:59.541Z,71.44
2023-05-04T02:57:26.166Z,72.37
2023-05-04T02:59:53.069Z,71.69
2023-05-04T03:02:19.744Z,70.34
2023-05-04T03:04:46.622Z,70.42
2023-05-04T03:07:13.443Z,70.94
2023-05-04T03:09:40.112Z,71.02
2023-05-04T03:12:06.739Z,71.51
2023-05-04T03:14:33.658Z,71.26
2023-05-04T03:17:00.403Z,72.17
2023-05-04T03:19:27.264Z,72.76
2023-05-04T03:21:54.030Z,72.20
2023-05-04T03:24:22.137Z,72.37
2023-05-04T03:26:48.837Z,71.79
2023-05-04T03:29:15.741Z,72.39
2023-05-04T03:31:42.554Z,72.36
2023-05-04T03:34:14.700Z,72.24
2023-05-04T03:36:41.689Z,72.20
2023-05-04T03:39:08.355Z,71.75
2023-05-04T03:41:35.629Z,71.59
2023-05-04T03:44:02.249Z,72.77
2023-05-04T03:46:29.270Z,72.39
2023-05-04T03:48:57.547Z,71.95
2023-05-04T03:51:24.533Z,72.69
2023-05-04T03:53:51.167Z,71.63
2023-05-04T03:56:18.582Z,71.75
2023-05-04T03:58:46.244Z,71.45
2023-05-04T04:01:14.910Z,71.82
2023-05-04T04:03:41.706Z,71.46
2023-05-04T04:06:09.802Z,71.46
2023-05-04T04:08:37.271Z,71.37
2023-05-04T04:11:04.112Z,71.50
2023-05-04T04:13:30.725Z,72.98
2023-05-04T04:15:57.464Z,72.64
2023-05-04T04:18:24.351Z,72.92
2023-05-04T04:20:51.617Z,72.71
2023-05-04T04:23:19.173Z,74.20
2023-05-04T04:25:46.399Z,73.18
2023-05-04T04:28:14.137Z,72.74
2023-05-04T04:30:41.692Z,72.91
2023-05-04T04:33:09.087Z,74.21
2023-05-04T04:35:36.046Z,74.16
2023-05-04T04:38:03.868Z,74.80
2023-05-04T04:40:30.900Z,74.61
2023-05-04T04:42:57.531Z,73.89
2023-05-04T04:45:24.748Z,74.81
2023-05-04T04:47:51.702Z,74.86
2023-05-04T04:50:19.285Z,74.96
2023-05-04T04:52:46.364Z,75.41
2023-05-04T04:55:15.542Z,75.48
2023-05-04T04:57:42.275Z,75.27
2023-05-04T05:00:10.126Z,75.39
2023-05-04T05:02:37.046Z,74.67
2023-05-04T05:05:04.094Z,75.16
2023-05-04T05:07:30.833Z,75.62
2023-05-04T05:09:57.606Z,75.53
2023-05-04T05:12:24.366Z,75.15
2023-05-04T05:14:51.292Z,75.37
2023-05-04T05:17:19.416Z,75.63
2023-05-04T05:19:46.897Z,75.23
2023-05-04T05:22:13.743Z,76.18
2023-05-04T05:24:41.039Z,76.24
2023-05-04T05:27:08.024Z,75.88
2023-05-04T05:29:35.486Z,75.78
2023-05-04T05:32:02.101Z,75.55
2023-05-04T05:34:28.882Z,76.70
2023-05-04T05:36:55.644Z,74.75
2023-05-04T05:39:22.549Z,73.21
2023-05-04T05:41:49.137Z,74.54
2023-05-04T05:44:15.811Z,77.27
2023-05-04T05:46:42.438Z,76.55
2023-05-04T05:49:09.194Z,72.91
2023-05-04T05:51:35.767Z,72.38
2023-05-04T05:54:02.439Z,74.29
2023-05-04T05:56:29.086Z,74.15
2023-05-04T05:58:55.877Z,74.72
2023-05-04T06:01:22.671Z,75.52
2023-05-04T06:03:49.677Z,74.90
2023-05-04T06:06:17.276Z,73.87
2023-05-04T06:08:43.954Z,74.72
2023-05-04T06:11:11.808Z,74.43
2023-05-04T06:13:38.582Z,74.81
2023-05-04T06:16:05.376Z,74.55
2023-05-04T06:18:32.336Z,74.43
2023-05-04T06:21:00.070Z,73.96
2023-05-04T06:23:31.283Z,74.45
2023-05-04T06:25:58.349Z,73.57
2023-05-04T06:28:25.049Z,74.70
2023-05-04T06:30:51.688Z,71.79
2023-05-04T06:33:18.479Z,70.91
2023-05-04T06:35:45.557Z,71.46
2023-05-04T06:38:12.414Z,71.21
2023-05-04T06:40:39.188Z,71.38
2023-05-04T06:43:06.707Z,70.82
2023-05-04T06:45:36.864Z,71.99
2023-05-04T06:48:04.540Z,71.17
2023-05-04T06:50:33.094Z,70.74
2023-05-04T06:53:04.577Z,70.85
2023-05-04T06:55:31.872Z,71.63
2023-05-04T06:57:58.649Z,70.41
2023-05-04T07:00:26.033Z,70.46
2023-05-04T07:02:53.709Z,70.03
2023-05-04T07:05:23.832Z,72.99
2023-05-04T07:07:51.346Z,70.61
2023-05-04T07:10:19.590Z,69.77
2023-05-04T07:12:46.971Z,70.38
2023-05-04T07:15:13.963Z,68.75
2023-05-04T07:17:40.988Z,69.81
2023-05-04T07:20:08.385Z,69.36
2023-05-04T07:22:35.401Z,68.28
2023-05-04T07:25:02.114Z,66.44
2023-05-04T07:27:28.986Z,66.30
2023-05-04T07:29:56.169Z,67.43
2023-05-04T07:32:23.184Z,66.16
2023-05-04T07:34:50.071Z,65.94
2023-05-04T07:37:17.061Z,65.11
2023-05-04T07:39:44.019Z,65.42
2023-05-04T07:42:11.750Z,65.03
2023-05-04T07:44:38.499Z,63.12
2023-05-04T07:47:05.235Z,64.34
2023-05-04T07:49:32.034Z,64.32
2023-05-04T07:51:59.037Z,63.93
2023-05-04T07:54:25.836Z,64.08
2023-05-04T07:56:52.509Z,65.29
2023-05-04T07:59:19.398Z,65.30
2023-05-04T08:01:46.651Z,64.32
2023-05-04T08:04:13.375Z,65.48
2023-05-04T08:06:40.184Z,65.21
2023-05-04T08:09:06.806Z,63.52
2023-05-04T08:11:37.730Z,64.13
2023-05-04T08:14:04.697Z,62.68
2023-05-04T08:16:32.346Z,63.96
2023-05-04T08:18:59.788Z,63.68
2023-05-04T08:21:26.805Z,59.73
2023-05-04T08:23:54.229Z,61.01
2023-05-04T08:26:20.932Z,61.26
2023-05-04T08:28:48.456Z,61.41
2023-05-04T08:31:16.652Z,60.64
2023-05-04T08:33:47.271Z,62.11
2023-05-04T08:36:14.141Z,60.59
2023-05-04T08:38:40.768Z,60.79
2023-05-04T08:41:08.965Z,61.49
2023-05-04T08:43:36.820Z,60.58
2023-05-04T08:46:04.904Z,59.61
2023-05-04T08:48:33.715Z,60.04
2023-05-04T08:51:01.240Z,59.95
2023-05-04T08:53:29.938Z,58.43
2023-05-04T08:55:59.196Z,61.10
2023-05-04T08:58:27.709Z,58.51
2023-05-04T09:00:55.810Z,60.42
2023-05-04T09:03:23.378Z,59.55
2023-05-04T09:05:51.079Z,57.73
2023-05-04T09:08:20.742Z,55.49
2023-05-04T09:10:47.584Z,58.00
2023-05-04T09:13:14.898Z,57.36
2023-05-04T09:15:42.348Z,57.96
2023-05-04T09:18:12.189Z,56.27
2023-05-04T09:20:46.902Z,57.31
2023-05-04T09:23:14.728Z,56.08
2023-05-04T09:25:52.974Z,55.96
2023-05-04T09:28:21.800Z,55.81
2023-05-04T09:30:51.668Z,55.28
2023-05-04T09:33:26.199Z,55.51
2023-05-04T09:35:53.001Z,55.58
2023-05-04T09:38:26.816Z,55.71
2023-05-04T09:40:53.709Z,56.52
2023-05-04T09:43:20.440Z,57.71
2023-05-04T09:45:48.454Z,55.89
2023-05-04T09:48:25.780Z,54.44
2023-05-04T09:50:57.353Z,57.64
2023-05-04T09:53:26.067Z,55.57
2023-05-04T09:56:16.885Z,55.77
2023-05-04T09:58:45.573Z,55.40
2023-05-04T10:01:12.611Z,55.58
2023-05-04T10:03:39.970Z,55.89
2023-05-04T10:06:08.876Z,55.70
2023-05-04T10:08:36.219Z,54.06
2023-05-04T10:11:03.198Z,54.20
2023-05-04T10:13:30.080Z,56.17
2023-05-04T10:16:16.233Z,55.84
2023-05-04T10:19:17.127Z,56.21
2023-05-04T10:22:02.310Z,57.03
2023-05-04T10:25:05.800Z,52.98
2023-05-04T10:27:57.201Z,57.98
2023-05-04T10:30:23.972Z,55.78
2023-05-04T10:32:58.122Z,55.06
2023-05-04T10:35:25.697Z,52.52
2023-05-04T10:37:56.330Z,52.83
2023-05-04T10:40:38.965Z,53.68
2023-05-04T10:43:07.976Z,53.90
2023-05-04T10:45:37.228Z,54.93
2023-05-04T10:48:05.325Z,54.50
2023-05-04T10:50:43.596Z,51.56
2023-05-04T10:53:11.420Z,51.63
2023-05-04T10:55:43.223Z,51.65
2023-05-04T10:58:11.402Z,51.58
2023-05-04T11:00:43.171Z,51.09
2023-05-04T11:03:11.826Z,50.09
2023-05-04T11:05:46.914Z,50.32
2023-05-04T11:08:21.741Z,49.61
2023-05-04T11:11:00.344Z,49.81
2023-05-04T11:13:29.058Z,51.66
2023-05-04T11:15:55.724Z,51.28
2023-05-04T11:18:34.345Z,50.03
2023-05-04T11:21:01.586Z,48.51
2023-05-04T11:23:28.318Z,49.76
2023-05-04T11:25:55.204Z,51.12
2023-05-04T11:28:33.026Z,48.21
2023-05-04T11:31:00.198Z,48.22
2023-05-04T11:33:28.534Z,48.90
2023-05-04T11:36:03.800Z,50.05
2023-05-04T11:38:30.533Z,47.87
2023-05-04T11:40:57.103Z,48.57
2023-05-04T11:43:24.021Z,48.04
2023-05-04T11:45:51.923Z,48.91
2023-05-04T11:48:18.993Z,46.49
2023-05-04T11:50:46.885Z,48.82
2023-05-04T11:53:14.063Z,46.89
2023-05-04T11:55:41.815Z,44.39
2023-05-04T11:58:10.140Z,48.94
2023-05-04T12:00:41.584Z,47.43
2023-05-04T12:03:12.167Z,47.33
2023-05-04T12:05:46.289Z,47.10
2023-05-04T12:08:34.721Z,44.01
2023-05-04T12:11:13.843Z,46.21
2023-05-04T12:13:42.459Z,45.32
2023-05-04T12:16:10.038Z,47.41
2023-05-04T12:18:37.113Z,47.29
2023-05-04T12:21:15.280Z,49.23
2023-05-04T12:23:42.550Z,48.89
2023-05-04T12:26:10.617Z,47.26
2023-05-04T12:28:38.631Z,47.29
2023-05-04T12:31:06.483Z,48.31
2023-05-04T12:33:34.056Z,50.62
2023-05-04T12:36:02.064Z,46.78
2023-05-04T12:38:29.265Z,48.01
2023-05-04T12:40:58.887Z,46.83
2023-05-04T12:43:25.751Z,47.51
2023-05-04T12:45:53.297Z,46.14
2023-05-04T12:48:20.911Z,44.51
2023-05-04T12:50:49.205Z,44.33
2023-05-04T12:53:16.184Z,46.68
2023-05-04T12:55:43.073Z,45.90
2023-05-04T12:58:10.059Z,45.87
2023-05-04T13:00:38.565Z,48.27
2023-05-04T13:03:06.124Z,45.09
2023-05-04T13:05:33.215Z,44.75
2023-05-04T13:07:59.918Z,44.47
2023-05-04T13:10:27.000Z,44.20
2023-05-04T13:12:53.980Z,47.33
2023-05-04T13:15:20.643Z,46.09
2023-05-04T13:17:47.354Z,48.02
2023-05-04T13:20:14.900Z,45.02
2023-05-04T13:22:41.957Z,47.97
2023-05-04T13:25:09.247Z,46.02
2023-05-04T13:27:36.261Z,48.21
2023-05-04T13:30:03.555Z,46.43
2023-05-04T13:32:31.374Z,46.70
2023-05-04T13:34:58.147Z,46.55
2023-05-04T13:37:24.879Z,45.87
2023-05-04T13:39:51.460Z,45.85
2023-05-04T13:42:18.420Z,44.97
2023-05-04T13:44:45.561Z,45.32
2023-05-04T13:47:16.483Z,46.41
2023-05-04T13:49:43.334Z,46.08
2023-05-04T13:52:10.157Z,47.31
2023-05-04T13:54:37.285Z,45.38
2023-05-04T13:57:04.496Z,44.98
2023-05-04T13:59:31.648Z,47.20
2023-05-04T14:01:58.787Z,44.73
2023-05-04T14:04:25.506Z,45.74
2023-05-04T14:06:52.410Z,45.61
2023-05-04T14:09:19.774Z,44.03
2023-05-04T14:11:47.586Z,43.81
2023-05-04T14:14:14.600Z,43.00
2023-05-04T14:16:41.981Z,42.90
2023-05-04T14:19:08.728Z,44.18
2023-05-04T14:21:36.940Z,44.36
2023-05-04T14:24:03.901Z,42.36
2023-05-04T14:26:32.539Z,44.66
2023-05-04T14:28:59.244Z,43.02
2023-05-04T14:31:26.231Z,43.81
2023-05-04T14:33:54.719Z,45.24
2023-05-04T14:36:22.699Z,43.99
2023-05-04T14:38:49.287Z,43.83
2023-05-04T14:41:16.026Z,41.80
2023-05-04T14:43:42.836Z,44.78
2023-05-04T14:46:09.802Z,42.90
2023-05-04T14:48:37.315Z,44.23
2023-05-04T14:51:04.138Z,43.52
2023-05-04T14:53:34.207Z,44.15
2023-05-04T14:56:01.335Z,44.96
2023-05-04T14:58:28.857Z,43.69
2023-05-04T15:00:55.911Z,43.17
2023-05-04T15:03:22.969Z,43.69
2023-05-04T15:05:49.828Z,44.86
2023-05-04T15:08:16.468Z,44.16
2023-05-04T15:10:43.165Z,45.24
2023-05-04T15:13:09.977Z,45.32
2023-05-04T15:15:40.570Z,43.61
2023-05-04T15:18:07.663Z,44.44
2023-05-04T15:20:38.224Z,45.22
2023-05-04T15:23:10.583Z,44.34
2023-05-04T15:25:41.104Z,43.61
2023-05-04T15:28:11.982Z,44.25
2023-05-04T15:30:42.243Z,44.45
2023-05-04T15:33:09.103Z,43.13
2023-05-04T15:35:37.297Z,44.71
2023-05-04T15:38:04.106Z,43.99
2023-05-04T15:40:31.347Z,42.76
2023-05-04T15:43:01.984Z,42.25
2023-05-04T15:45:32.090Z,44.38
2023-05-04T15:48:00.295Z,45.21
2023-05-04T15:50:27.177Z,43.85
2023-05-04T15:52:53.992Z,43.76
2023-05-04T15:55:25.780Z,43.69
2023-05-04T15:57:53.938Z,44.18
2023-05-04T16:00:21.384Z,44.22
2023-05-04T16:02:48.418Z,44.53
2023-05-04T16:05:15.356Z,45.15
2023-05-04T16:07:42.208Z,44.34
2023-05-04T16:10:10.016Z,44.97
2023-05-04T16:12:38.665Z,44.90
2023-05-04T16:15:05.775Z,45.14
2023-05-04T16:17:35.125Z,45.85
2023-05-04T16:20:03.107Z,45.98
2023-05-04T16:22:31.077Z,46.87
2023-05-04T16:24:57.900Z,45.31
2023-05-04T16:27:26.791Z,45.08
2023-05-04T16:29:53.780Z,45.61
2023-05-04T16:32:20.796Z,46.04
2023-05-04T16:34:47.823Z,45.70
2023-05-04T16:37:15.254Z,46.13
2023-05-04T16:39:41.963Z,45.37
2023-05-04T16:42:08.579Z,46.31
2023-05-04T16:44:35.576Z,45.75
2023-05-04T16:47:02.357Z,44.80
2023-05-04T16:49:29.881Z,45.69
2023-05-04T16:51:57.274Z,45.68
2023-05-04T16:54:24.205Z,45.83
2023-05-04T16:56:51.217Z,45.73
2023-05-04T16:59:17.907Z,46.30
2023-05-04T17:01:44.742Z,46.56
2023-05-04T17:04:11.723Z,46.29
2023-05-04T17:06:38.632Z,46.19
2023-05-04T17:09:05.881Z,46.61
2023-05-04T17:11:32.604Z,46.42
2023-05-04T17:13:59.630Z,46.67
2023-05-04T17:16:26.336Z,47.34
2023-05-04T17:18:53.187Z,46.97
2023-05-04T17:21:19.866Z,46.57
2023-05-04T17:23:46.532Z,47.75
2023-05-04T17:26:13.254Z,47.72
2023-05-04T17:28:39.905Z,48.46
2023-05-04T17:31:10.149Z,47.04
2023-05-04T17:33:36.919Z,48.11
2023-05-04T17:36:05.944Z,48.44
2023-05-04T17:38:32.701Z,48.65
2023-05-04T17:40:59.375Z,49.18
2023-05-04T17:43:26.270Z,49.42
2023-05-04T17:45:55.476Z,48.48
2023-05-04T17:48:24.082Z,49.06
2023-05-04T17:50:51.243Z,49.14
2023-05-04T17:53:18.274Z,49.32
2023-05-04T17:55:44.900Z,48.62
2023-05-04T17:58:11.730Z,48.61
2023-05-04T18:00:38.469Z,49.95
2023-05-04T18:03:05.394Z,49.34
2023-05-04T18:05:32.254Z,50.36
2023-05-04T18:07:59.410Z,51.08
2023-05-04T18:10:26.223Z,52.33
2023-05-04T18:12:53.006Z,53.39
2023-05-04T18:15:19.740Z,53.85
2023-05-04T18:17:46.526Z,54.50
2023-05-04T18:20:13.556Z,53.15
2023-05-04T18:22:41.026Z,55.12
2023-05-04T18:25:08.192Z,55.79
2023-05-04T18:27:35.858Z,55.90
2023-05-04T18:30:04.951Z,55.65
2023-05-04T18:32:31.746Z,54.59
2023-05-04T18:34:58.780Z,54.69
2023-05-04T18:37:25.903Z,54.36
2023-05-04T18:39:52.841Z,55.49
2023-05-04T18:42:19.814Z,54.55
2023-05-04T18:44:46.575Z,54.84
2023-05-04T18:47:13.550Z,53.80
2023-05-04T18:49:40.297Z,54.76
2023-05-04T18:52:07.181Z,55.22
2023-05-04T18:54:34.090Z,54.34
2023-05-04T18:57:01.161Z,54.68
2023-05-04T18:59:27.803Z,54.26
2023-05-04T19:01:55.629Z,55.59
2023-05-04T19:04:22.312Z,55.42
2023-05-04T19:06:51.704Z,55.85
2023-05-04T19:09:18.821Z,56.33
2023-05-04T19:11:48.990Z,56.24
2023-05-04T19:14:15.670Z,56.76
2023-05-04T19:16:42.392Z,57.13
2023-05-04T19:19:09.362Z,56.75
2023-05-04T19:21:36.201Z,56.94
2023-05-04T19:24:02.981Z,57.29
2023-05-04T19:26:29.729Z,58.08
2023-05-04T19:28:56.399Z,58.54
2023-05-04T19:31:23.033Z,58.51
2023-05-04T19:33:49.832Z,58.32
2023-05-04T19:36:17.030Z,58.50
2023-05-04T19:38:44.077Z,58.96
2023-05-04T19:41:10.806Z,59.00
2023-05-04T19:43:38.711Z,58.76
2023-05-04T19:46:06.170Z,58.89
2023-05-04T19:48:33.017Z,58.42
2023-05-04T19:50:59.603Z,57.84
2023-05-04T19:53:26.799Z,58.27
2023-05-04T19:55:54.032Z,58.25
2023-05-04T19:58:22.090Z,58.13
2023-05-04T20:00:48.844Z,57.80
2023-05-04T20:03:17.088Z,57.68
2023-05-04T20:05:43.744Z,57.89
2023-05-04T20:08:10.601Z,57.34
2023-05-04T20:10:37.514Z,57.05
2023-05-04T20:13:05.593Z,57.16
2023-05-04T20:15:32.420Z,57.27
2023-05-04T20:17:59.316Z,57.31
2023-05-04T20:20:26.758Z,58.03
2023-05-04T20:22:53.885Z,57.49
2023-05-04T20:25:20.731Z,57.68
2023-05-04T20:27:48.775Z,57.27
2023-05-04T20:30:15.581Z,58.20
2023-05-04T20:32:44.085Z,57.93
2023-05-04T20:35:11.171Z,57.94
2023-05-04T20:37:37.868Z,57.97
2023-05-04T20:40:05.284Z,57.95
2023-05-04T20:42:32.872Z,57.99
2023-05-04T20:44:59.504Z,58.13
2023-05-04T20:47:26.553Z,58.87
2023-05-04T20:49:53.132Z,58.99
2023-05-04T20:52:19.810Z,59.20
2023-05-04T20:54:46.837Z,58.94
2023-05-04T20:57:13.535Z,58.03
2023-05-04T20:59:40.413Z,58.32
2023-05-04T21:02:07.964Z,58.54
2023-05-04T21:04:34.632Z,58.52
2023-05-04T21:07:01.332Z,58.04
2023-05-04T21:09:28.240Z,58.42
2023-05-04T21:11:55.259Z,58.72
2023-05-04T21:14:22.404Z,58.80
2023-05-04T21:16:49.575Z,59.14
2023-05-04T21:19:16.602Z,58.79
2023-05-04T21:21:43.618Z,58.66
2023-05-04T21:24:14.109Z,59.62
2023-05-04T21:26:41.609Z,59.79
2023-05-04T21:29:12.897Z,60.06
2023-05-04T21:31:40.164Z,60.37
2023-05-04T21:34:07.320Z,59.58
2023-05-04T21:36:34.107Z,60.46
2023-05-04T21:39:00.906Z,60.07
2023-05-04T21:41:27.615Z,60.21
2023-05-04T21:43:54.241Z,60.12
2023-05-04T21:46:21.066Z,59.86
2023-05-04T21:48:47.699Z,60.53
2023-05-04T21:51:14.548Z,60.53
2023-05-04T21:53:43.342Z,60.97
2023-05-04T21:56:10.783Z,60.32
2023-05-04T21:58:42.052Z,61.42
2023-05-04T22:01:09.761Z,61.70
2023-05-04T22:03:37.020Z,61.58
2023-05-04T22:06:04.118Z,61.43
2023-05-04T22:08:30.971Z,61.72
2023-05-04T22:10:58.700Z,61.81
2023-05-04T22:13:26.124Z,61.12
2023-05-04T22:15:53.563Z,61.29
2023-05-04T22:18:20.906Z,61.75
2023-05-04T22:20:47.923Z,61.76
2023-05-04T22:23:15.085Z,62.35
2023-05-04T22:25:42.024Z,61.98
2023-05-04T22:28:08.700Z,62.19
2023-05-04T22:30:35.674Z,62.82
2023-05-04T22:33:02.441Z,62.05
2023-05-04T22:35:31.403Z,61.75
2023-05-04T22:37:58.169Z,62.48
2023-05-04T22:40:24.891Z,62.96
2023-05-04T22:42:51.523Z,62.95
2023-05-04T22:45:18.548Z,62.67
2023-05-04T22:47:46.803Z,62.60
2023-05-04T22:50:14.211Z,62.86
2023-05-04T22:52:41.424Z,63.39
2023-05-04T22:55:08.982Z,63.27
2023-05-04T22:57:36.036Z,63.33
2023-05-04T23:00:07.689Z,63.00
2023-05-04T23:02:34.958Z,63.19
2023-05-04T23:05:02.032Z,63.62
2023-05-04T23:07:28.792Z,63.59
2023-05-04T23:09:55.479Z,63.99
2023-05-04T23:12:22.424Z,63.68
2023-05-04T23:14:52.822Z,63.86
2023-05-04T23:17:19.781Z,64.06
2023-05-04T23:19:46.409Z,63.74
2023-05-04T23:22:14.265Z,63.57
2023-05-04T23:24:40.923Z,64.12
2023-05-04T23:27:07.881Z,63.99
2023-05-04T23:29:34.615Z,64.08
2023-05-04T23:32:01.500Z,63.76
2023-05-04T23:34:28.249Z,63.94
2023-05-04T23:36:55.199Z,64.38
2023-05-04T23:39:22.002Z,64.36
2023-05-04T23:41:49.069Z,64.29
2023-05-04T23:44:16.628Z,64.62
2023-05-04T23:46:43.486Z,64.70
2023-05-04T23:49:10.138Z,64.77
2023-05-04T23:51:36.990Z,65.37
2023-05-04T23:54:03.695Z,65.58
2023-05-04T23:56:31.625Z,65.98
2023-05-04T23:58:58.440Z,64.96
